Granville Airport


Codes: LFRF/GFR
Name: Granville Airport
City: Granville
Country: France
Elevation: 45 ft.

Photos at Granville Airport


   Photos courtesy of SpottingLog. You can add your own sightings and photos by signing up for a free trial today.



No photos found.

Weather at Granville Airport


Time (UTC)DescriptionTempratureWindCloud coverageVisibilityPressureHumidity
21-Jun-2024 12:00Clear Sky19°C11 mph, W1%10000m1017hPa75%
21-Jun-2024 15:00Scattered Clouds18°C11 mph, NW31%10000m1016hPa75%
21-Jun-2024 18:00Broken Clouds16°C11 mph, W73%10000m1016hPa80%
21-Jun-2024 21:00Light Rain15°C13 mph, SW100%10000m1016hPa87%
22-Jun-2024 00:00Light Rain14°C20 mph, SW100%10000m1015hPa94%
22-Jun-2024 03:00Light Rain15°C20 mph, W91%10000m1014hPa88%
22-Jun-2024 06:00Light Rain15°C18 mph, W75%10000m1015hPa84%
22-Jun-2024 09:00Light Rain15°C18 mph, W33%10000m1016hPa82%
22-Jun-2024 12:00Light Rain16°C16 mph, W32%10000m1017hPa72%
22-Jun-2024 15:00Light Rain16°C16 mph, NW69%10000m1017hPa74%
22-Jun-2024 18:00Scattered Clouds16°C13 mph, NW34%10000m1018hPa76%
22-Jun-2024 21:00Clear Sky14°C9 mph, NW3%10000m1019hPa81%
23-Jun-2024 00:00Clear Sky14°C7 mph, NW3%10000m1020hPa82%
23-Jun-2024 03:00Clear Sky13°C4 mph, NW1%10000m1020hPa82%
23-Jun-2024 06:00Clear Sky15°C2 mph, NW2%10000m1021hPa80%
23-Jun-2024 09:00Clear Sky17°C4 mph, NW1%10000m1022hPa73%
23-Jun-2024 12:00Clear Sky17°C9 mph, NW3%10000m1022hPa73%
23-Jun-2024 15:00Clear Sky18°C9 mph, NW6%10000m1022hPa72%
23-Jun-2024 18:00Clear Sky18°C11 mph, N1%10000m1021hPa77%
23-Jun-2024 21:00Clear Sky15°C9 mph, NE0%10000m1022hPa84%
24-Jun-2024 00:00Clear Sky14°C7 mph, E0%10000m1022hPa81%
24-Jun-2024 03:00Clear Sky13°C4 mph, E3%10000m1020hPa82%
24-Jun-2024 06:00Clear Sky15°C4 mph, E4%10000m1020hPa78%
24-Jun-2024 09:00Clear Sky18°C2 mph, NE5%10000m1019hPa67%
24-Jun-2024 12:00Clear Sky20°C9 mph, NW6%10000m1018hPa65%
24-Jun-2024 15:00Few Clouds21°C11 mph, NW11%10000m1017hPa71%
24-Jun-2024 18:00Clear Sky20°C9 mph, N9%10000m1016hPa78%
24-Jun-2024 21:00Scattered Clouds17°C11 mph, NE36%10000m1016hPa85%
25-Jun-2024 00:00Scattered Clouds16°C7 mph, E27%10000m1015hPa88%
25-Jun-2024 03:00Clear Sky16°C4 mph, E3%10000m1014hPa87%
25-Jun-2024 06:00Clear Sky17°C4 mph, NE3%10000m1014hPa85%
25-Jun-2024 09:00Clear Sky21°C4 mph, NE4%10000m1013hPa75%
25-Jun-2024 12:00Few Clouds21°C9 mph, NW16%10000m1012hPa77%
25-Jun-2024 15:00Light Rain22°C11 mph, N35%10000m1010hPa77%
25-Jun-2024 18:00Light Rain21°C13 mph, NE26%10000m1009hPa79%
25-Jun-2024 21:00Scattered Clouds18°C9 mph, NE31%10000m1009hPa86%
26-Jun-2024 00:00Light Rain17°C9 mph, NE67%10000m1007hPa92%
26-Jun-2024 03:00Light Rain16°C4 mph, N100%9423m1005hPa96%
26-Jun-2024 06:00Moderate Rain16°C9 mph, N100%2726m1003hPa99%
26-Jun-2024 09:00Moderate Rain19°C7 mph, S98%10000m1003hPa90%